Latest Weather Observations for Norseman Airport

IDW60801

Issued at 1:32 pm WST Tuesday 27 January 2015 (issued every 30 minutes, with the page automatically refreshed every 10 minutes)

About weather observations | Map of weather stations | Latest weather observations for WA | Other Formats
Station Details ID: 012009 Name: NORSEMAN AERO Lat: -32.21 Lon: 121.75 Height: 262.5 m
Data from the previous 72 hours. | See also: Recent months at Norseman Airport
Date/Time
WST
Temp
°C
App
Temp
°C
Dew
Point
Rel
Hum
%
Delta-T
°C
Wind Press
QNH
hPa
Press
MSL
hPa
Rain
since 9 am
mm
Dir
 
Spd
km/h
Gust
km/h
Spd
kts
Gust
kts
27/01:30pm 31.8 27.0 7.5 22 13.5 ENE 22 33 12 18 1012.0 1010.6 0.0
27/01:00pm 30.7 27.2 7.2 23 12.9 ENE 15 24 8 13 1012.3 1011.0 0.0
27/12:30pm 30.0 25.6 7.2 24 12.5 NE 20 35 11 19 1012.8 1011.5 0.0
27/12:00pm 29.3 25.3 6.7 24 12.2 NE 17 30 9 16 1013.3 1012.0 0.0
27/11:30am 29.2 25.0 8.3 27 11.6 NNE 20 30 11 16 1014.1 1012.8 0.0
27/11:00am 28.2 24.1 8.5 29 10.9 ENE 20 32 11 17 1014.5 1013.2 0.0
27/10:30am 26.2 22.2 8.2 32 9.8 NE 19 28 10 15 1014.9 1013.6 0.0
27/10:00am 24.6 20.8 9.0 37 8.5 NNE 19 28 10 15 1015.5 1014.1 0.0
27/09:30am 24.1 19.3 8.9 38 8.3 NE 24 35 13 19 1015.8 1014.5 0.0
27/09:00am 22.4 18.4 9.2 43 7.2 NE 20 28 11 15 1015.9 1014.6 0.0
27/08:30am 20.7 16.8 9.6 49 6.0 NE 20 28 11 15 1015.9 1014.6 0.0
27/08:00am 19.8 16.6 10.0 53 5.3 NE 17 24 9 13 1016.2 1014.9 0.0
27/07:30am 18.3 13.8 10.2 59 4.4 NE 24 33 13 18 1016.3 1015.0 0.0
27/07:00am 17.0 13.0 10.6 66 3.5 NE 22 28 12 15 1016.3 1015.0 0.0
27/06:30am 15.8 12.2 10.6 71 2.8 NE 20 30 11 16 1016.0 1014.7 0.0
27/06:00am 14.8 11.8 10.6 76 2.2 ENE 17 24 9 13 1015.9 1014.6 0.0
27/05:30am 14.1 11.4 10.5 79 1.9 ENE 15 20 8 11 1015.7 1014.4 0.0
27/05:00am 14.2 11.9 10.6 79 1.9 NE 13 19 7 10 1015.7 1014.4 0.0
27/04:30am 14.4 12.1 10.6 78 2.0 NE 13 19 7 10 1015.4 1014.0 0.0
27/04:00am 14.7 12.5 10.7 77 2.1 NE 13 20 7 11 1015.2 1013.8 0.0
27/03:30am 15.0 12.0 10.6 75 2.4 ENE 17 24 9 13 1014.9 1013.6 0.0
27/03:00am 15.3 11.9 10.7 74 2.5 NE 19 28 10 15 1015.2 1013.8 0.0
27/02:30am 15.8 12.3 10.8 72 2.7 ENE 20 32 11 17 1015.3 1013.9 0.0
27/02:00am 15.9 12.5 10.7 71 2.8 ENE 19 28 10 15 1015.3 1013.9 0.0
27/01:30am 16.2 13.5 10.5 69 3.1 ENE 15 19 8 10 1015.5 1014.1 0.0
27/01:00am 17.0 15.9 10.6 66 3.5 NNW 7 11 4 6 1015.8 1014.5 0.0
27/12:30am 17.3 12.9 10.4 64 3.7 E 24 39 13 21 1015.0 1013.7 0.0
27/12:00am 17.9 12.7 10.3 61 4.1 E 28 43 15 23 1014.9 1013.6 0.0
 
Date/Time
WST
Temp
°C
App
Temp
°C
Dew
Point
Rel
Hum
%
Delta-T
°C
Wind Press
QNH
hPa
Press
MSL
hPa
Rain
since 9 am
mm
Dir
 
Spd
km/h
Gust
km/h
Spd
kts
Gust
kts
26/11:30pm 18.4 13.8 9.7 57 4.7 E 24 35 13 19 1014.7 1013.4 0.0
26/11:00pm 19.1 14.6 9.9 55 5.0 E 24 35 13 19 1014.7 1013.4 0.0
26/10:34pm 19.9 14.6 9.8 52 5.5 E 28 46 15 25 1014.6 1013.3 0.0
26/10:30pm 20.0 15.1 9.9 52 5.5 E 26 46 14 25 1014.6 1013.3 0.0
26/10:00pm 20.9 16.3 9.8 49 6.0 E 24 39 13 21 1014.6 1013.3 0.0
26/09:30pm 22.2 18.2 9.0 43 7.1 E 20 32 11 17 1014.3 1013.0 0.0
26/09:00pm 23.3 19.5 3.8 28 9.6 E 13 20 7 11 1014.2 1012.9 0.0
26/08:30pm 24.3 20.4 3.6 26 10.3 ENE 13 17 7 9 1014.0 1012.7 0.0
26/08:00pm 25.3 21.5 3.9 25 10.7 ENE 13 17 7 9 1013.7 1012.4 0.0
26/07:30pm 26.4 22.2 3.6 23 11.5 ENE 15 20 8 11 1013.4 1012.1 0.0
26/07:00pm 27.3 23.2 4.4 23 11.7 ENE 15 24 8 13 1013.2 1011.9 0.0
26/06:30pm 28.3 23.4 3.9 21 12.5 E 19 28 10 15 1013.0 1011.7 0.0
26/06:00pm 29.0 24.0 3.8 20 12.9 ENE 19 26 10 14 1012.8 1011.5 0.0
26/05:30pm 29.4 24.9 4.1 20 13.1 ESE 17 28 9 15 1012.7 1011.4 0.0
26/05:00pm 29.7 25.7 5.1 21 13.0 ENE 15 26 8 14 1012.8 1011.5 0.0
26/04:30pm 29.5 24.6 4.9 21 12.9 NE 20 28 11 15 1012.9 1011.6 0.0
26/04:00pm 29.3 25.3 4.7 21 12.8 E 15 24 8 13 1013.3 1012.0 0.0
26/03:30pm 29.5 25.3 5.6 22 12.7 NE 17 22 9 12 1013.7 1012.4 0.0
26/03:00pm 29.0 25.2 5.8 23 12.3 NE 15 26 8 14 1014.0 1012.7 0.0
26/02:30pm 28.4 24.0 6.5 25 11.7 ENE 19 32 10 17 1014.4 1013.1 0.0
26/02:00pm 28.6 25.1 7.2 26 11.6 NE 15 28 8 15 1014.6 1013.3 0.0
26/01:30pm 27.5 23.5 6.8 27 11.1 ENE 17 28 9 15 1015.2 1013.8 0.0
26/01:00pm 26.9 23.3 6.9 28 10.7 ESE 15 24 8 13 1015.5 1014.1 0.0
26/12:30pm 25.9 22.5 7.5 31 9.9 ESE 15 26 8 14 1015.9 1014.6 0.0
26/12:00pm 26.1 21.5 8.1 32 9.8 ENE 22 30 12 16 1016.6 1015.3 0.0
26/11:30am 25.0 21.0 8.1 34 9.1 ENE 19 28 10 15 1017.2 1015.9 0.0
26/11:00am 23.3 19.6 7.8 37 8.2 NE 17 26 9 14 1017.7 1016.4 0.0
26/10:30am 22.9 19.6 8.2 39 7.9 NE 15 28 8 15 1018.2 1016.9 0.0
26/10:00am 22.2 18.6 8.3 41 7.4 ENE 17 26 9 14 1018.4 1017.1 0.0
26/09:30am 20.7 16.4 7.7 43 6.8 ENE 20 32 11 17 1018.7 1017.4 0.0
26/09:00am 20.3 16.3 8.3 46 6.3 NE 19 30 10 16 1019.0 1017.8 0.0
26/08:30am 18.9 14.9 8.3 50 5.5 ENE 19 30 10 16 1019.4 1018.1 0.0
26/08:00am 18.4 14.2 8.4 52 5.2 NE 20 32 11 17 1019.5 1018.2 0.0
26/07:30am 16.6 12.4 8.1 57 4.4 ENE 20 30 11 16 1019.7 1018.4 0.0
26/07:00am 15.4 11.8 8.2 62 3.7 ENE 17 28 9 15 1019.8 1018.5 0.0
26/06:30am 14.4 12.3 8.1 66 3.2 ENE 9 13 5 7 1019.8 1018.5 0.0
26/06:00am 12.9 11.1 7.8 71 2.5 ENE 7 11 4 6 1019.7 1018.4 0.0
26/05:30am 10.3 9.5 6.6 78 1.8 CALM 0 0 0 0 1019.4 1018.1 0.0
26/05:00am 10.4 9.5 6.2 75 2.0 CALM 0 4 0 2 1019.2 1017.9 0.0
26/04:30am 10.9 9.7 6.3 73 2.2 ESE 2 6 1 3 1018.9 1017.7 0.0
26/04:00am 12.2 11.5 7.1 71 2.5 CALM 0 0 0 0 1018.7 1017.4 0.0
26/03:30am 12.8 10.9 7.5 70 2.6 ENE 7 9 4 5 1018.6 1017.3 0.0
26/03:00am 13.4 11.7 7.6 68 2.9 E 6 11 3 6 1018.5 1017.2 0.0
26/02:30am 13.5 11.6 7.5 67 3.0 ENE 7 11 4 6 1018.3 1017.0 0.0
26/02:00am 14.1 11.8 7.6 65 3.2 E 9 15 5 8 1018.0 1016.7 0.0
26/01:30am 14.5 11.9 7.8 64 3.4 E 11 19 6 10 1017.9 1016.6 0.0
26/01:00am 14.8 11.8 7.8 63 3.5 E 13 22 7 12 1018.1 1016.8 0.0
26/12:30am 15.0 13.2 8.0 63 3.5 SE 7 13 4 7 1018.3 1017.0 0.0
26/12:00am 15.7 11.5 8.2 61 3.8 E 20 30 11 16 1018.4 1017.1 0.0
 
Date/Time
WST
Temp
°C
App
Temp
°C
Dew
Point
Rel
Hum
%
Delta-T
°C
Wind Press
QNH
hPa
Press
MSL
hPa
Rain
since 9 am
mm
Dir
 
Spd
km/h
Gust
km/h
Spd
kts
Gust
kts
25/11:30pm 16.2 12.6 8.2 59 4.1 ESE 17 32 9 17 1018.2 1016.9 0.0
25/11:00pm 16.9 12.9 8.1 56 4.5 ESE 19 28 10 15 1018.0 1016.7 0.0
25/10:30pm 17.6 15.0 7.9 53 5.0 SE 11 28 6 15 1018.0 1016.7 0.0
25/10:00pm 18.5 13.8 7.9 50 5.5 ESE 22 35 12 19 1017.3 1016.0 0.0
25/09:30pm 19.5 14.5 8.2 48 5.9 ESE 24 43 13 23 1016.9 1015.6 0.0
25/09:12pm 20.3 14.6 8.3 46 6.3 ESE 28 48 15 26 1016.7 1015.4 0.0
25/09:00pm 21.1 15.4 8.4 44 6.7 ESE 28 44 15 24 1016.7 1015.4 0.0
25/08:30pm 22.7 17.2 7.7 38 7.9 SE 26 41 14 22 1016.1 1014.8 0.0
25/08:27pm 22.8 16.9 7.4 37 8.1 SE 28 41 15 22 1016.1 1014.8 0.0
25/08:00pm 24.0 21.0 5.8 31 9.4 ESE 11 15 6 8 1015.7 1014.4 0.0
25/07:30pm 24.8 21.8 6.1 30 9.7 ESE 11 17 6 9 1015.4 1014.0 0.0
25/07:00pm 25.7 22.4 6.3 29 10.2 ESE 13 19 7 10 1015.3 1013.9 0.0
25/06:30pm 26.7 23.1 6.7 28 10.6 ESE 15 28 8 15 1015.2 1013.8 0.0
25/06:00pm 27.2 23.4 6.0 26 11.2 ESE 15 22 8 12 1014.8 1013.5 0.0
25/05:30pm 27.3 23.2 6.1 26 11.2 ESE 17 30 9 16 1014.6 1013.3 0.0
25/05:00pm 28.4 24.0 6.5 25 11.7 E 19 26 10 14 1014.5 1013.2 0.0
25/04:30pm 28.7 24.6 6.1 24 12.0 SSE 17 26 9 14 1014.7 1013.4 0.0
25/04:00pm 28.1 23.4 6.2 25 11.6 SE 20 32 11 17 1014.9 1013.6 0.0
25/03:30pm 28.3 24.6 6.4 25 11.7 ESE 15 28 8 15 1015.5 1014.1 0.0
25/03:00pm 27.8 23.8 6.6 26 11.3 ESE 17 28 9 15 1015.9 1014.6 0.0
25/02:30pm 27.1 23.7 6.0 26 11.1 SE 13 22 7 12 1016.1 1014.8 0.0
25/02:00pm 27.3 24.1 6.7 27 11.0 E 13 26 7 14 1016.5 1015.2 0.0
25/01:30pm 26.2 22.6 6.8 29 10.3 SE 15 26 8 14 1016.9 1015.6 0.0
25/01:00pm 25.7 22.1 6.8 30 10.0 ESE 15 22 8 12 1017.1 1015.8 0.0
25/12:30pm 25.2 22.1 7.3 32 9.5 E 13 22 7 12 1017.4 1016.1 0.0
25/12:00pm 24.0 20.5 7.2 34 8.9 ESE 15 20 8 11 1017.9 1016.6 0.0
25/11:30am 23.4 19.6 7.5 36 8.4 ESE 17 30 9 16 1018.5 1017.2 0.0
25/11:00am 22.9 19.3 8.2 39 7.8 E 17 28 9 15 1018.7 1017.4 0.0
25/10:30am 22.0 17.8 8.2 41 7.3 SE 20 33 11 18 1019.2 1017.9 0.0
25/10:00am 21.2 17.2 8.1 43 6.9 SE 19 30 10 16 1019.3 1018.0 0.0
25/09:30am 19.9 16.5 7.6 45 6.4 ESE 15 26 8 14 1019.6 1018.3 0.0
25/09:00am 18.6 14.5 7.7 49 5.6 SE 19 30 10 16 1019.4 1018.1 0.0
25/08:30am 18.5 14.7 7.6 49 5.6 SE 17 26 9 14 1019.5 1018.2 0.0
25/08:00am 18.1 15.2 8.1 52 5.2 SE 13 20 7 11 1019.5 1018.2 0.0
25/07:30am 16.5 13.2 8.2 58 4.3 SE 15 22 8 12 1019.9 1018.6 0.0
25/07:00am 15.9 13.6 9.1 64 3.5 ESE 11 15 6 8 1019.7 1018.4 0.0
25/06:30am 15.1 12.8 9.0 67 3.2 ESE 11 17 6 9 1019.3 1018.0 0.0
25/06:00am 14.6 12.4 9.2 70 2.8 SSE 11 17 6 9 1018.7 1017.4 0.0
25/05:30am 14.1 12.6 9.3 73 2.5 SSE 7 9 4 5 1018.4 1017.1 0.0
25/05:00am 13.9 12.1 9.3 74 2.4 SSE 9 13 5 7 1017.9 1016.6 0.0
25/04:30am 14.0 12.8 9.6 75 2.3 SE 6 7 3 4 1018.0 1016.7 0.0
25/04:00am 14.0 12.7 9.8 76 2.2 SE 7 9 4 5 1017.6 1016.3 0.0
25/03:30am 13.8 12.5 10.0 78 2.0 ESE 7 9 4 5 1017.5 1016.2 0.0
25/03:00am 13.7 12.0 9.7 77 2.1 SE 9 13 5 7 1017.3 1016.0 0.0
25/02:30am 13.7 12.3 9.6 76 2.1 SE 7 11 4 6 1017.3 1016.0 0.0
25/02:00am 14.2 12.4 9.6 74 2.4 SE 9 11 5 6 1017.4 1016.1 0.0
25/01:30am 14.6 12.5 9.8 73 2.5 SE 11 15 6 8 1017.4 1016.1 0.0
25/01:00am 14.9 13.2 9.9 72 2.6 SE 9 13 5 7 1017.6 1016.3 0.0
25/12:30am 15.5 13.1 10.1 70 2.9 SE 13 20 7 11 1017.6 1016.3 0.0
25/12:00am 15.8 13.4 10.1 69 3.0 SE 13 17 7 9 1017.6 1016.3 0.0
 
Date/Time
WST
Temp
°C
App
Temp
°C
Dew
Point
Rel
Hum
%
Delta-T
°C
Wind Press
QNH
hPa
Press
MSL
hPa
Rain
since 9 am
mm
Dir
 
Spd
km/h
Gust
km/h
Spd
kts
Gust
kts
24/11:30pm 16.2 13.5 10.3 68 3.2 SE 15 20 8 11 1017.5 1016.2 0.0
24/11:00pm 16.7 13.1 10.5 67 3.3 SE 20 30 11 16 1017.3 1016.0 0.0
24/10:30pm 17.1 13.6 10.9 67 3.4 SSE 20 32 11 17 1017.2 1015.9 0.0
24/10:00pm 17.8 14.2 10.4 62 4.0 SSE 20 35 11 19 1017.0 1015.7 0.0
24/09:30pm 18.7 15.1 10.0 57 4.7 SSE 19 30 10 16 1016.8 1015.5 0.0
24/09:00pm 19.5 15.0 10.0 54 5.1 SSE 24 33 13 18 1016.6 1015.3 0.0
24/08:30pm 20.4 15.8 9.6 50 5.8 SSE 24 39 13 21 1016.0 1014.7 0.0
24/08:00pm 21.2 16.4 8.8 45 6.6 SSE 24 41 13 22 1015.8 1014.5 0.0
24/07:30pm 22.1 17.2 8.6 42 7.2 S 24 37 13 20 1015.3 1013.9 0.0
24/07:00pm 23.1 17.5 8.8 40 7.7 S 28 48 15 26 1014.8 1013.5 0.0
24/06:56pm 23.2 17.6 8.9 40 7.8 S 28 48 15 26 1014.7 1013.4 0.0
24/06:30pm 24.4 19.2 8.8 37 8.5 SSE 26 39 14 21 1014.3 1013.0 0.0
24/06:00pm 25.7 21.1 8.2 33 9.5 S 22 35 12 19 1013.8 1012.5 0.0
24/05:30pm 26.4 21.5 8.4 32 9.8 SSE 24 33 13 18 1013.6 1012.3 0.0
24/05:00pm 27.1 21.8 8.5 31 10.2 SE 26 39 14 21 1013.2 1011.9 0.0
24/04:30pm 28.8 23.1 6.8 25 11.9 S 26 33 14 18 1013.1 1011.8 0.0
24/04:00pm 28.7 24.3 7.3 26 11.6 SSE 20 32 11 17 1013.0 1011.7 0.0
24/03:30pm 29.3 25.0 7.2 25 12.0 S 19 35 10 19 1013.1 1011.8 0.0
24/03:00pm 29.3 24.8 6.0 23 12.4 SW 19 48 10 26 1013.1 1011.8 0.0
24/02:30pm 29.4 25.0 6.7 24 12.3 SSW 19 37 10 20 1013.4 1012.1 0.0
24/02:00pm 28.6 24.0 5.5 23 12.2 SSW 19 35 10 19 1013.7 1012.4 0.0

Other Formats:

Comma delimited format used in spreadsheet applications
http://www.bom.gov.au/fwo/IDW60801/IDW60801.95642.axf

JavaScript Object Notation format (JSON) in row-major order
http://www.bom.gov.au/fwo/IDW60801/IDW60801.95642.json